Time;durP1;ratioP1;P1;durP2;ratioP2;P2;SDS_P1;SDS_P2;PMS_P1;PMS_P2;Temp;Humidity;BMP_temperature;BMP_pressure;BME280_temperature;BME280_humidity;BME280_pressure;Samples;Min_cycle;Max_cycle;Signal;HPM_P1;HPM_P2
2023/07/04 06:12:26;;;;;;;4.32;3.92;;;;;;;;;;6157420;22;20555;-92
2023/07/04 06:14:53;;;;;;;4.28;3.75;;;;;;;;;;6159827;23;20015;-95
2023/07/04 09:03:11;;;;;;;5.60;3.67;;;;;;;;;;6196522;23;20001;-86
2023/07/04 09:06:29;;;;;;;5.53;3.92;;;;;;;;;;6168323;23;20009;-90
2023/07/04 09:09:50;;;;;;;5.50;4.00;;;;;;;;;;6028540;23;20106;-93
2023/07/04 09:15:05;;;;;;;4.72;3.83;;;;;;;;;;6139429;22;20051;-84
2023/07/04 11:31:28;;;;;;;4.35;3.95;;;;;;;;;;6146325;22;20057;-90
2023/07/04 11:33:53;;;;;;;4.38;3.97;;;;;;;;;;6156698;23;20044;-90
2023/07/04 11:36:26;;;;;;;4.57;4.00;;;;;;;;;;6156679;23;20005;-89
2023/07/04 11:38:57;;;;;;;5.38;3.90;;;;;;;;;;6156766;23;20031;-90
2023/07/04 11:41:41;;;;;;;4.28;3.88;;;;;;;;;;6156580;23;20053;-90
2023/07/04 11:44:23;;;;;;;3.75;3.40;;;;;;;;;;6157062;23;20032;-89
2023/07/04 17:26:48;;;;;;;5.97;4.40;;;;;;;;;;6167471;22;20033;-89
2023/07/04 17:29:13;;;;;;;4.88;4.13;;;;;;;;;;6157955;23;20017;-92
2023/07/04 17:31:39;;;;;;;5.32;3.85;;;;;;;;;;6162142;23;20005;-92
2023/07/04 17:34:04;;;;;;;4.07;3.58;;;;;;;;;;6159582;23;20016;-95
2023/07/04 17:36:31;;;;;;;3.95;3.55;;;;;;;;;;6158556;23;20060;-88
2023/07/04 17:38:57;;;;;;;4.90;3.83;;;;;;;;;;6158530;23;20008;-88
2023/07/04 17:41:24;;;;;;;6.00;4.13;;;;;;;;;;6159905;23;20001;-92
2023/07/04 17:43:51;;;;;;;4.03;3.63;;;;;;;;;;6158266;23;20016;-91
2023/07/04 17:46:17;;;;;;;4.03;3.65;;;;;;;;;;6158348;23;20002;-88
2023/07/04 17:48:44;;;;;;;4.13;3.78;;;;;;;;;;6132970;23;20006;-91
2023/07/04 17:51:12;;;;;;;4.68;3.90;;;;;;;;;;6158480;23;20005;-93
2023/07/04 17:53:39;;;;;;;5.25;3.97;;;;;;;;;;6158035;23;20009;-95
2023/07/04 17:56:09;;;;;;;4.75;4.00;;;;;;;;;;6163723;23;20005;-91
2023/07/04 17:58:36;;;;;;;4.80;4.28;;;;;;;;;;6160216;23;20006;-92
2023/07/04 18:01:04;;;;;;;4.80;3.83;;;;;;;;;;6159730;23;20001;-92
2023/07/04 18:03:32;;;;;;;5.15;4.43;;;;;;;;;;6158772;23;19997;-95
2023/07/04 18:05:58;;;;;;;5.00;4.50;;;;;;;;;;6158531;23;20006;-89
2023/07/04 18:08:24;;;;;;;5.50;4.80;;;;;;;;;;6158980;23;20009;-89
2023/07/04 18:10:49;;;;;;;6.80;4.10;;;;;;;;;;6158425;23;20044;-88
2023/07/04 18:13:15;;;;;;;4.32;3.90;;;;;;;;;;6157964;23;20016;-92
2023/07/04 18:15:52;;;;;;;4.10;3.70;;;;;;;;;;6158044;23;20037;-88
2023/07/04 18:18:19;;;;;;;4.10;3.70;;;;;;;;;;6158029;23;20001;-90
2023/07/04 18:20:44;;;;;;;4.10;3.58;;;;;;;;;;6158138;23;20009;-91
2023/07/04 18:23:10;;;;;;;5.72;3.40;;;;;;;;;;6157695;23;20450;-90
2023/07/04 18:25:37;;;;;;;5.35;4.85;;;;;;;;;;6158996;23;20012;-94
2023/07/04 18:28:03;;;;;;;5.55;4.90;;;;;;;;;;6158579;23;20013;-92
2023/07/04 18:30:28;;;;;;;4.70;4.00;;;;;;;;;;6158273;23;20010;-91
2023/07/04 18:32:54;;;;;;;4.88;3.78;;;;;;;;;;6158616;23;20377;-93
2023/07/04 18:35:19;;;;;;;4.07;3.30;;;;;;;;;;6160869;23;20044;-92
2023/07/04 18:37:45;;;;;;;4.63;3.72;;;;;;;;;;6159382;23;20001;-94
2023/07/04 18:40:10;;;;;;;4.22;3.20;;;;;;;;;;6158700;23;20017;-92
2023/07/04 18:42:36;;;;;;;3.45;3.13;;;;;;;;;;6158436;23;20009;-89
2023/07/04 18:45:02;;;;;;;4.65;3.47;;;;;;;;;;6158199;23;20005;-92
2023/07/04 18:47:28;;;;;;;4.25;3.78;;;;;;;;;;6158283;23;20029;-95
2023/07/04 18:49:54;;;;;;;5.68;5.07;;;;;;;;;;6132242;23;20010;-93
2023/07/04 18:52:19;;;;;;;6.43;5.13;;;;;;;;;;6158889;23;20041;-96
2023/07/04 18:54:45;;;;;;;5.90;4.30;;;;;;;;;;6158958;23;20005;-95
2023/07/04 18:57:15;;;;;;;4.32;3.35;;;;;;;;;;6163364;23;19994;-86
2023/07/04 18:59:40;;;;;;;4.28;3.67;;;;;;;;;;6165012;23;20401;-92
2023/07/04 19:02:07;;;;;;;3.83;3.28;;;;;;;;;;6136681;23;20006;-95
2023/07/04 19:04:35;;;;;;;4.20;3.80;;;;;;;;;;6159175;23;20029;-92
2023/07/04 19:07:02;;;;;;;4.33;3.70;;;;;;;;;;6161855;23;20451;-92
2023/07/04 19:09:28;;;;;;;3.70;3.33;;;;;;;;;;6158366;23;20001;-91
2023/07/04 19:11:53;;;;;;;3.90;3.60;;;;;;;;;;6158069;23;20417;-88
2023/07/04 19:14:20;;;;;;;4.13;3.50;;;;;;;;;;6157424;23;20092;-91
2023/07/04 19:16:50;;;;;;;5.32;3.47;;;;;;;;;;6157204;23;20459;-92
2023/07/04 19:19:24;;;;;;;4.18;3.20;;;;;;;;;;6157963;23;20006;-91
2023/07/04 19:21:52;;;;;;;5.40;3.88;;;;;;;;;;6158206;23;20001;-93
2023/07/04 19:24:18;;;;;;;3.60;3.30;;;;;;;;;;6158194;23;20005;-92
2023/07/04 19:26:43;;;;;;;4.20;3.80;;;;;;;;;;6158056;23;20002;-91
2023/07/04 19:29:09;;;;;;;4.47;4.07;;;;;;;;;;6131331;23;20018;-91
2023/07/04 19:31:34;;;;;;;3.88;3.50;;;;;;;;;;6157620;23;20002;-93
2023/07/04 19:33:59;;;;;;;4.80;3.50;;;;;;;;;;6157271;23;20396;-92
2023/07/04 19:36:25;;;;;;;4.70;3.90;;;;;;;;;;6159424;23;20002;-93
2023/07/04 19:38:50;;;;;;;3.92;3.58;;;;;;;;;;6158602;23;20001;-94
2023/07/04 19:41:16;;;;;;;4.97;3.58;;;;;;;;;;6157842;23;20006;-94
2023/07/04 19:43:41;;;;;;;5.07;4.40;;;;;;;;;;6157596;23;20051;-94
2023/07/04 19:46:08;;;;;;;4.15;3.67;;;;;;;;;;6157673;23;20420;-92
2023/07/04 19:48:36;;;;;;;4.18;3.78;;;;;;;;;;6158043;23;20025;-92
2023/07/04 19:51:11;;;;;;;4.20;3.40;;;;;;;;;;6158698;23;20029;-92
2023/07/04 19:53:38;;;;;;;3.63;3.33;;;;;;;;;;6158225;23;20353;-92
2023/07/04 19:56:08;;;;;;;4.10;3.67;;;;;;;;;;6132258;23;20037;-96
2023/07/04 19:58:34;;;;;;;3.65;3.20;;;;;;;;;;6157883;23;20001;-91
2023/07/04 20:01:07;;;;;;;3.58;3.28;;;;;;;;;;6157463;23;20056;-95
2023/07/04 20:03:33;;;;;;;3.85;3.33;;;;;;;;;;6157891;23;20036;-95
2023/07/04 20:05:59;;;;;;;4.18;3.20;;;;;;;;;;6157971;23;20064;-95
2023/07/04 20:08:24;;;;;;;5.50;3.63;;;;;;;;;;6157612;23;20005;-91
2023/07/04 20:10:50;;;;;;;4.32;3.25;;;;;;;;;;6130535;23;20092;-86
2023/07/04 20:13:15;;;;;;;3.78;3.45;;;;;;;;;;6156373;23;20009;-87
2023/07/04 20:15:41;;;;;;;4.90;3.00;;;;;;;;;;6156286;23;20392;-87
2023/07/04 20:18:08;;;;;;;4.40;3.67;;;;;;;;;;6130098;23;20001;-87
2023/07/04 20:20:34;;;;;;;4.13;3.45;;;;;;;;;;6130697;23;20005;-87
2023/07/04 20:22:59;;;;;;;3.75;3.03;;;;;;;;;;6105854;23;20013;-87
2023/07/04 20:25:25;;;;;;;3.75;3.35;;;;;;;;;;6156573;23;20085;-85
2023/07/04 20:27:50;;;;;;;3.97;3.53;;;;;;;;;;6156161;23;20433;-87
2023/07/04 20:30:16;;;;;;;4.35;3.55;;;;;;;;;;6156286;23;20033;-87
2023/07/04 20:32:41;;;;;;;4.57;3.20;;;;;;;;;;6156301;23;20078;-87
2023/07/04 20:35:07;;;;;;;5.10;3.55;;;;;;;;;;6156203;23;20093;-87
2023/07/04 20:37:32;;;;;;;3.55;3.25;;;;;;;;;;6155993;23;20025;-87
2023/07/04 20:39:58;;;;;;;3.42;3.13;;;;;;;;;;6156427;23;20002;-86
2023/07/04 20:42:23;;;;;;;3.17;2.88;;;;;;;;;;6156302;23;20006;-86
2023/07/04 20:44:49;;;;;;;4.82;3.72;;;;;;;;;;6156134;23;20076;-86
2023/07/04 20:47:14;;;;;;;3.60;3.08;;;;;;;;;;6155935;23;20345;-86
2023/07/04 20:49:40;;;;;;;4.13;3.72;;;;;;;;;;6156467;23;20333;-87
2023/07/04 20:52:05;;;;;;;3.95;3.55;;;;;;;;;;6156109;23;20006;-86
2023/07/04 20:54:31;;;;;;;3.85;3.45;;;;;;;;;;6156216;23;20417;-86
2023/07/04 20:56:57;;;;;;;3.92;3.30;;;;;;;;;;6156158;23;20002;-86
2023/07/04 20:59:23;;;;;;;3.70;3.40;;;;;;;;;;6156045;23;20025;-86
2023/07/04 21:01:49;;;;;;;4.85;3.60;;;;;;;;;;6155987;23;20005;-86
2023/07/04 21:04:15;;;;;;;3.30;3.00;;;;;;;;;;6155998;23;20029;-86
2023/07/04 21:06:41;;;;;;;3.78;3.38;;;;;;;;;;6156203;23;20005;-87
2023/07/04 21:09:18;;;;;;;4.55;3.10;;;;;;;;;;6156291;23;20439;-85
2023/07/04 21:11:45;;;;;;;3.28;2.97;;;;;;;;;;6129976;23;20041;-86
2023/07/04 21:14:10;;;;;;;3.83;3.42;;;;;;;;;;6155837;23;20009;-86
2023/07/04 21:16:36;;;;;;;3.78;3.33;;;;;;;;;;6156345;23;20005;-86
2023/07/04 21:19:01;;;;;;;3.72;3.25;;;;;;;;;;6156237;23;20043;-87
2023/07/04 21:21:30;;;;;;;3.90;3.30;;;;;;;;;;6156221;23;20002;-87
2023/07/04 21:23:57;;;;;;;3.50;3.20;;;;;;;;;;6156044;23;20037;-84
2023/07/04 21:26:22;;;;;;;4.85;3.88;;;;;;;;;;6155939;23;20009;-87
2023/07/04 21:28:48;;;;;;;8.43;3.50;;;;;;;;;;6129700;23;20341;-87
2023/07/04 21:31:13;;;;;;;3.80;3.13;;;;;;;;;;6155904;23;20001;-87
2023/07/04 21:33:40;;;;;;;5.10;3.55;;;;;;;;;;6155867;23;20005;-88
2023/07/04 21:36:07;;;;;;;5.22;3.10;;;;;;;;;;6156378;23;20109;-87
2023/07/04 21:38:37;;;;;;;3.40;3.10;;;;;;;;;;6156137;23;20306;-87
2023/07/04 21:41:04;;;;;;;3.90;3.50;;;;;;;;;;6155826;23;20033;-88
2023/07/04 21:43:30;;;;;;;3.90;3.53;;;;;;;;;;6129746;23;20097;-86
2023/07/04 21:45:57;;;;;;;5.47;4.07;;;;;;;;;;6156030;23;20421;-86
2023/07/04 21:48:23;;;;;;;5.80;4.03;;;;;;;;;;6155780;23;20433;-87
2023/07/04 21:50:51;;;;;;;7.53;4.13;;;;;;;;;;6155993;23;20013;-85
2023/07/04 21:53:16;;;;;;;8.20;4.50;;;;;;;;;;6155922;23;20005;-87
2023/07/04 21:55:41;;;;;;;5.95;4.20;;;;;;;;;;6155880;23;20080;-86
2023/07/04 21:58:07;;;;;;;5.40;4.10;;;;;;;;;;6156234;23;20084;-86
2023/07/04 22:00:33;;;;;;;5.20;3.83;;;;;;;;;;6157751;23;20037;-87
2023/07/04 22:02:58;;;;;;;4.20;3.80;;;;;;;;;;6157734;23;20005;-86
2023/07/04 22:05:24;;;;;;;5.47;4.25;;;;;;;;;;6157736;23;20006;-85
2023/07/04 22:07:49;;;;;;;4.60;4.10;;;;;;;;;;6157615;23;20071;-86
2023/07/04 22:10:15;;;;;;;4.95;3.83;;;;;;;;;;6157636;23;20005;-87
2023/07/04 22:12:41;;;;;;;4.75;3.97;;;;;;;;;;6157934;23;20009;-87
2023/07/04 22:15:07;;;;;;;4.53;4.13;;;;;;;;;;6157820;23;20010;-86
2023/07/04 22:17:33;;;;;;;6.97;3.85;;;;;;;;;;6157545;23;20421;-87
2023/07/04 22:19:58;;;;;;;5.28;4.20;;;;;;;;;;6157722;23;20006;-86
2023/07/04 22:22:24;;;;;;;4.40;3.97;;;;;;;;;;6157585;23;20009;-86
2023/07/04 22:24:50;;;;;;;4.45;4.05;;;;;;;;;;6157463;23;20052;-84
2023/07/04 22:27:16;;;;;;;4.97;3.85;;;;;;;;;;6156984;23;20460;-83
2023/07/04 22:29:41;;;;;;;4.53;3.90;;;;;;;;;;6156272;23;20062;-86
2023/07/04 22:32:07;;;;;;;6.82;3.72;;;;;;;;;;6157196;23;20002;-86
2023/07/04 22:34:33;;;;;;;4.43;4.03;;;;;;;;;;6157247;23;20382;-83
2023/07/04 22:36:58;;;;;;;4.35;3.95;;;;;;;;;;6157426;23;20001;-84
2023/07/04 22:39:24;;;;;;;7.07;3.75;;;;;;;;;;6157324;23;20015;-84
2023/07/04 22:41:49;;;;;;;5.70;4.07;;;;;;;;;;6157264;23;20006;-82
2023/07/04 22:44:15;;;;;;;4.25;3.45;;;;;;;;;;6157182;23;20009;-85
2023/07/04 22:46:41;;;;;;;5.47;3.83;;;;;;;;;;6157648;23;20072;-85
2023/07/04 22:49:07;;;;;;;4.28;3.03;;;;;;;;;;6157483;23;20417;-86
2023/07/04 22:51:32;;;;;;;5.50;3.30;;;;;;;;;;6157355;23;20028;-85
2023/07/04 22:53:57;;;;;;;4.68;2.95;;;;;;;;;;6157326;23;20009;-85
2023/07/04 22:56:24;;;;;;;3.53;2.75;;;;;;;;;;6157262;23;20421;-84
2023/07/04 22:58:49;;;;;;;3.53;2.92;;;;;;;;;;6157496;23;20005;-84
2023/07/04 23:01:18;;;;;;;4.38;2.85;;;;;;;;;;6157306;23;20072;-85
2023/07/04 23:03:44;;;;;;;4.35;3.10;;;;;;;;;;6157407;23;20076;-86
2023/07/04 23:06:10;;;;;;;3.28;2.83;;;;;;;;;;6157145;23;20036;-84
2023/07/04 23:08:36;;;;;;;5.30;3.05;;;;;;;;;;6157090;23;20409;-85
2023/07/04 23:11:02;;;;;;;3.97;3.05;;;;;;;;;;6156793;23;20033;-86
2023/07/04 23:13:28;;;;;;;3.50;2.92;;;;;;;;;;6156980;23;20006;-86
2023/07/04 23:16:04;;;;;;;3.45;2.83;;;;;;;;;;6157365;23;20033;-86
2023/07/04 23:18:29;;;;;;;3.58;2.80;;;;;;;;;;6157213;23;20771;-86
2023/07/04 23:20:55;;;;;;;4.38;3.25;;;;;;;;;;6156981;23;20013;-84
2023/07/04 23:23:21;;;;;;;4.40;3.20;;;;;;;;;;6156828;23;20056;-85
2023/07/04 23:25:46;;;;;;;3.95;3.03;;;;;;;;;;6156932;23;20444;-86
2023/07/04 23:28:12;;;;;;;3.03;2.72;;;;;;;;;;6156726;23;20024;-86
2023/07/04 23:30:37;;;;;;;3.75;2.92;;;;;;;;;;6157192;23;20010;-85
2023/07/04 23:33:03;;;;;;;4.38;3.00;;;;;;;;;;6157056;23;20006;-85
2023/07/04 23:35:28;;;;;;;3.50;3.00;;;;;;;;;;6156999;23;20080;-85
2023/07/04 23:37:54;;;;;;;3.40;3.00;;;;;;;;;;6156978;23;20001;-85
2023/07/04 23:40:19;;;;;;;4.30;3.17;;;;;;;;;;6156699;23;20444;-86
2023/07/04 23:42:45;;;;;;;4.40;3.28;;;;;;;;;;6157016;23;20010;-85
2023/07/04 23:45:11;;;;;;;4.05;3.10;;;;;;;;;;6157034;23;20014;-86
2023/07/04 23:47:36;;;;;;;5.65;2.80;;;;;;;;;;6156982;23;20009;-86
2023/07/04 23:50:02;;;;;;;4.32;3.08;;;;;;;;;;6156837;23;20006;-85
2023/07/04 23:52:27;;;;;;;3.70;2.80;;;;;;;;;;6156610;23;20418;-86
2023/07/04 23:54:53;;;;;;;2.95;2.58;;;;;;;;;;6156616;23;20380;-86
2023/07/04 23:57:18;;;;;;;3.17;2.80;;;;;;;;;;6156953;23;20001;-86
2023/07/04 23:59:44;;;;;;;4.20;2.80;;;;;;;;;;6156933;23;20005;-86
